createdAt,value
2022-08-18T00:01:06.515Z,24.64
2022-08-18T00:03:55.864Z,24.60
2022-08-18T00:06:20.204Z,24.64
2022-08-18T00:08:46.706Z,24.63
2022-08-18T00:11:13.223Z,24.64
2022-08-18T00:13:39.748Z,24.59
2022-08-18T00:16:06.528Z,24.59
2022-08-18T00:18:33.020Z,24.57
2022-08-18T00:20:59.784Z,24.58
2022-08-18T00:23:30.425Z,24.56
2022-08-18T00:25:59.522Z,24.57
2022-08-18T00:28:26.140Z,24.60
2022-08-18T00:30:53.885Z,24.54
2022-08-18T00:33:20.775Z,24.52
2022-08-18T00:35:47.288Z,24.55
2022-08-18T00:38:23.670Z,24.49
2022-08-18T00:40:54.475Z,24.52
2022-08-18T00:43:27.805Z,24.51
2022-08-18T00:45:54.388Z,24.52
2022-08-18T00:48:20.877Z,24.50
2022-08-18T00:50:55.715Z,24.50
2022-08-18T00:53:29.666Z,24.46
2022-08-18T00:55:56.635Z,24.48
2022-08-18T00:58:27.596Z,24.50
2022-08-18T01:00:54.885Z,24.50
2022-08-18T01:03:24.400Z,24.48
2022-08-18T01:06:01.280Z,24.50
2022-08-18T01:08:29.482Z,24.52
2022-08-18T01:10:56.502Z,24.52
2022-08-18T01:13:26.928Z,24.53
2022-08-18T01:15:53.576Z,24.53
2022-08-18T01:18:38.391Z,24.52
2022-08-18T01:21:34.300Z,24.48
2022-08-18T01:24:02.483Z,24.44
2022-08-18T01:26:30.295Z,24.44
2022-08-18T01:28:58.912Z,24.46
2022-08-18T01:31:37.524Z,24.45
2022-08-18T01:34:06.393Z,24.48
2022-08-18T01:36:34.815Z,24.45
2022-08-18T01:39:01.311Z,24.48
2022-08-18T01:41:30.873Z,24.46
2022-08-18T01:43:59.045Z,24.47
2022-08-18T01:46:26.421Z,24.44
2022-08-18T01:48:53.636Z,24.46
2022-08-18T01:51:34.767Z,24.43
2022-08-18T01:54:07.004Z,24.42
2022-08-18T01:56:33.649Z,24.41
2022-08-18T01:59:00.164Z,24.39
2022-08-18T02:01:35.305Z,24.38
2022-08-18T02:04:31.220Z,24.38
2022-08-18T02:06:51.007Z,24.39
2022-08-18T02:09:24.228Z,24.37
2022-08-18T02:11:51.282Z,24.38
2022-08-18T02:14:20.227Z,24.37
2022-08-18T02:16:53.410Z,24.36
2022-08-18T02:19:25.871Z,24.35
2022-08-18T02:21:52.709Z,24.38
2022-08-18T02:24:19.222Z,24.38
2022-08-18T02:26:45.720Z,24.37
2022-08-18T02:29:12.784Z,24.37
2022-08-18T02:31:39.295Z,24.34
2022-08-18T02:34:05.792Z,24.34
2022-08-18T02:36:32.332Z,24.36
2022-08-18T02:38:59.713Z,24.36
2022-08-18T02:41:29.605Z,24.35
2022-08-18T02:43:56.490Z,24.35
2022-08-18T02:46:23.544Z,24.34
2022-08-18T02:48:52.318Z,24.32
2022-08-18T02:51:18.911Z,24.32
2022-08-18T02:53:46.133Z,24.35
2022-08-18T02:56:41.484Z,24.32
2022-08-18T02:59:10.741Z,24.33
2022-08-18T03:01:39.393Z,24.33
2022-08-18T03:04:07.403Z,24.32
2022-08-18T03:06:34.312Z,24.33
2022-08-18T03:09:00.820Z,24.32
2022-08-18T03:11:27.939Z,24.30
2022-08-18T03:13:54.644Z,24.28
2022-08-18T03:16:21.336Z,24.25
2022-08-18T03:18:48.003Z,24.28
2022-08-18T03:21:16.606Z,24.30
2022-08-18T03:23:43.958Z,24.26
2022-08-18T03:26:27.575Z,24.26
2022-08-18T03:28:54.509Z,24.23
2022-08-18T03:31:22.888Z,24.21
2022-08-18T03:33:51.543Z,24.21
2022-08-18T03:36:19.995Z,24.19
2022-08-18T03:38:46.603Z,24.20
2022-08-18T03:41:58.838Z,24.18
2022-08-18T03:44:05.321Z,24.13
2022-08-18T03:46:32.237Z,24.14
2022-08-18T03:49:00.356Z,24.14
2022-08-18T03:51:27.692Z,24.15
2022-08-18T03:53:55.504Z,24.11
2022-08-18T03:56:23.826Z,24.09
2022-08-18T03:58:52.736Z,24.10
2022-08-18T04:01:27.133Z,24.09
2022-08-18T04:03:57.875Z,24.09
2022-08-18T04:06:29.860Z,24.09
2022-08-18T04:08:59.017Z,24.08
2022-08-18T04:11:25.563Z,24.08
2022-08-18T04:13:52.069Z,24.08
2022-08-18T04:16:18.570Z,24.10
2022-08-18T04:18:45.323Z,24.07
2022-08-18T04:21:13.640Z,24.08
2022-08-18T04:23:43.880Z,24.06
2022-08-18T04:26:19.065Z,24.05
2022-08-18T04:28:46.172Z,24.06
2022-08-18T04:31:13.900Z,24.00
2022-08-18T04:33:40.928Z,24.05
2022-08-18T04:36:13.549Z,24.04
2022-08-18T04:38:47.262Z,24.00
2022-08-18T04:41:13.812Z,23.98
2022-08-18T04:43:40.763Z,23.98
2022-08-18T04:46:07.352Z,23.98
2022-08-18T04:48:39.246Z,23.97
2022-08-18T04:51:10.400Z,23.97
2022-08-18T04:53:45.926Z,23.99
2022-08-18T04:56:28.560Z,23.97
2022-08-18T04:58:57.933Z,23.95
2022-08-18T05:01:27.503Z,23.97
2022-08-18T05:03:54.320Z,23.99
2022-08-18T05:06:21.567Z,23.97
2022-08-18T05:08:48.467Z,23.97
2022-08-18T05:11:15.043Z,23.96
2022-08-18T05:13:42.869Z,23.97
2022-08-18T05:16:16.656Z,23.97
2022-08-18T05:18:44.735Z,23.96
2022-08-18T05:21:14.448Z,23.94
2022-08-18T05:23:44.698Z,23.95
2022-08-18T05:26:11.652Z,23.94
2022-08-18T05:28:38.177Z,23.97
2022-08-18T05:31:13.546Z,23.95
2022-08-18T05:33:40.388Z,23.95
2022-08-18T05:36:29.760Z,23.95
2022-08-18T05:39:22.688Z,23.95
2022-08-18T05:41:54.892Z,23.97
2022-08-18T05:44:29.690Z,23.96
2022-08-18T05:47:04.767Z,23.98
2022-08-18T05:49:31.268Z,23.96
2022-08-18T05:52:03.087Z,23.94
2022-08-18T05:54:55.284Z,23.95
2022-08-18T05:57:22.393Z,23.94
2022-08-18T05:59:48.927Z,23.94
2022-08-18T06:02:28.390Z,23.94
2022-08-18T06:05:11.949Z,23.92
2022-08-18T06:07:49.291Z,23.93
2022-08-18T06:10:16.012Z,23.92
2022-08-18T06:12:47.436Z,23.95
2022-08-18T06:15:31.644Z,23.93
2022-08-18T06:18:18.524Z,23.94
2022-08-18T06:21:00.107Z,23.97
2022-08-18T06:23:36.135Z,23.97
2022-08-18T06:26:20.067Z,23.96
2022-08-18T06:29:12.600Z,23.97
2022-08-18T06:32:03.003Z,23.98
2022-08-18T06:35:08.193Z,24.02
2022-08-18T06:38:05.813Z,23.99
2022-08-18T06:40:32.315Z,23.79
2022-08-18T06:43:02.153Z,23.42
2022-08-18T06:45:35.945Z,23.31
2022-08-18T06:48:15.721Z,23.53
2022-08-18T06:50:50.839Z,23.66
2022-08-18T06:53:26.885Z,23.69
2022-08-18T06:55:54.186Z,23.64
2022-08-18T06:58:30.210Z,23.30
2022-08-18T07:01:02.354Z,23.33
2022-08-18T07:03:48.873Z,23.49
2022-08-18T07:06:21.464Z,23.47
2022-08-18T07:08:55.466Z,23.47
2022-08-18T07:11:32.477Z,23.51
2022-08-18T07:14:16.835Z,23.52
2022-08-18T07:16:59.755Z,23.52
2022-08-18T07:19:29.112Z,23.52
2022-08-18T07:22:05.469Z,23.31
2022-08-18T07:24:38.758Z,23.26
2022-08-18T07:27:13.340Z,23.41
2022-08-18T07:30:00.247Z,23.44
2022-08-18T07:32:34.358Z,22.98
2022-08-18T07:35:03.622Z,22.98
2022-08-18T07:37:43.559Z,23.13
2022-08-18T07:40:21.022Z,23.12
2022-08-18T07:43:05.328Z,23.17
2022-08-18T07:45:42.929Z,22.89
2022-08-18T07:48:39.820Z,22.90
2022-08-18T07:51:24.147Z,22.89
2022-08-18T07:53:56.878Z,23.06
2022-08-18T07:56:37.769Z,23.16
2022-08-18T07:59:21.081Z,23.07
2022-08-18T08:01:54.877Z,23.00
2022-08-18T08:04:42.784Z,23.06
2022-08-18T08:07:24.908Z,23.05
2022-08-18T08:10:30.641Z,23.18
2022-08-18T08:13:53.509Z,22.70
2022-08-18T08:16:37.977Z,22.98
2022-08-18T08:19:58.828Z,23.04
2022-08-18T08:22:27.545Z,23.15
2022-08-18T08:25:01.698Z,23.33
2022-08-18T08:27:34.337Z,23.01
2022-08-18T08:30:12.496Z,23.23
2022-08-18T08:33:02.668Z,23.34
2022-08-18T08:35:48.562Z,23.39
2022-08-18T08:38:45.026Z,23.43
2022-08-18T08:41:14.382Z,23.06
2022-08-18T08:43:43.995Z,23.01
2022-08-18T08:46:13.304Z,23.24
2022-08-18T08:48:43.201Z,22.97
2022-08-18T08:51:09.560Z,23.03
2022-08-18T08:53:39.908Z,23.45
2022-08-18T08:56:09.644Z,23.95
2022-08-18T08:58:50.716Z,24.73
2022-08-18T09:01:29.388Z,24.62
2022-08-18T09:04:23.284Z,24.11
2022-08-18T09:07:47.313Z,23.89
2022-08-18T09:10:22.328Z,23.73
2022-08-18T09:13:10.043Z,23.69
2022-08-18T09:15:54.443Z,23.76
2022-08-18T09:18:34.085Z,23.76
2022-08-18T09:21:15.997Z,23.73
2022-08-18T09:23:47.347Z,23.69
2022-08-18T09:26:26.011Z,23.71
2022-08-18T09:29:00.349Z,23.81
2022-08-18T09:31:27.595Z,23.87
2022-08-18T09:34:31.737Z,23.58
2022-08-18T09:37:28.507Z,23.69
2022-08-18T09:40:19.473Z,23.70
2022-08-18T09:43:20.170Z,23.74
2022-08-18T09:45:47.013Z,23.77
2022-08-18T09:48:20.774Z,23.73
2022-08-18T09:51:41.294Z,23.67
2022-08-18T09:54:13.365Z,23.74
2022-08-18T09:56:54.067Z,23.69
2022-08-18T10:02:28.412Z,23.80
2022-08-18T10:05:17.072Z,23.81
2022-08-18T10:07:47.562Z,23.76
2022-08-18T10:10:59.782Z,23.86
2022-08-18T10:13:29.701Z,23.75
2022-08-18T10:16:38.247Z,23.54
2022-08-18T10:19:33.855Z,23.58
2022-08-18T10:22:07.664Z,23.80
2022-08-18T10:24:53.805Z,23.79
2022-08-18T10:27:46.400Z,23.65
2022-08-18T10:36:03.141Z,23.53
2022-08-18T10:41:30.767Z,23.86
2022-08-18T10:43:58.016Z,23.93
2022-08-18T10:46:31.859Z,23.86
2022-08-18T10:52:20.944Z,23.58
2022-08-18T10:55:10.338Z,23.67
2022-08-18T10:58:02.180Z,23.73
2022-08-18T11:00:45.260Z,23.82
2022-08-18T11:03:50.481Z,23.75
2022-08-18T11:06:21.942Z,23.90
2022-08-18T11:08:54.825Z,23.70
2022-08-18T11:11:52.737Z,23.72
2022-08-18T11:14:58.397Z,23.91
2022-08-18T11:17:33.705Z,23.86
2022-08-18T11:20:00.955Z,23.86
2022-08-18T11:22:34.237Z,23.82
2022-08-18T11:25:03.271Z,23.91
2022-08-18T11:27:33.978Z,24.04
2022-08-18T11:30:01.658Z,24.20
2022-08-18T11:32:42.460Z,24.13
2022-08-18T11:35:24.102Z,24.10
2022-08-18T11:38:01.145Z,24.20
2022-08-18T11:41:08.764Z,24.16
2022-08-18T11:43:41.310Z,24.21
2022-08-18T11:46:24.082Z,24.15
2022-08-18T11:48:56.375Z,24.03
2022-08-18T11:51:32.080Z,24.08
2022-08-18T11:54:00.461Z,24.21
2022-08-18T11:56:31.145Z,24.33
2022-08-18T11:59:08.594Z,24.38
2022-08-18T12:01:42.398Z,24.41
2022-08-18T12:04:14.616Z,24.41
2022-08-18T12:06:50.962Z,24.40
2022-08-18T12:12:24.634Z,24.38
2022-08-18T12:18:10.372Z,24.39
2022-08-18T12:20:45.118Z,24.48
2022-08-18T12:23:17.801Z,24.47
2022-08-18T12:25:44.330Z,24.47
2022-08-18T12:28:11.273Z,24.41
2022-08-18T12:30:37.830Z,24.47
2022-08-18T12:33:12.181Z,24.44
2022-08-18T12:35:42.020Z,24.48
2022-08-18T12:38:12.833Z,24.50
2022-08-18T12:40:41.371Z,24.52
2022-08-18T12:43:08.084Z,24.48
2022-08-18T12:45:34.655Z,24.55
2022-08-18T12:48:04.650Z,24.58
2022-08-18T12:50:36.279Z,24.59
2022-08-18T12:53:05.893Z,24.60
2022-08-18T12:55:35.297Z,24.61
2022-08-18T12:58:05.245Z,24.70
2022-08-18T13:00:32.540Z,24.68
2022-08-18T13:02:59.290Z,24.69
2022-08-18T13:05:26.375Z,24.64
2022-08-18T13:07:58.019Z,24.60
2022-08-18T13:10:44.847Z,24.73
2022-08-18T13:13:11.062Z,24.67
2022-08-18T13:15:37.562Z,24.71
2022-08-18T13:18:04.320Z,24.69
2022-08-18T13:20:30.828Z,24.71
2022-08-18T13:22:57.335Z,24.73
2022-08-18T13:25:32.911Z,24.79
2022-08-18T13:28:06.106Z,24.76
2022-08-18T13:30:32.813Z,24.77
2022-08-18T13:33:05.166Z,24.76
2022-08-18T13:35:44.388Z,24.71
2022-08-18T13:38:20.715Z,24.74
2022-08-18T13:40:53.696Z,24.77
2022-08-18T13:43:25.978Z,24.74
2022-08-18T13:45:55.939Z,24.79
2022-08-18T13:48:24.079Z,24.74
2022-08-18T13:50:52.260Z,24.80
2022-08-18T13:53:19.856Z,24.79
2022-08-18T13:55:46.588Z,24.77
2022-08-18T13:58:20.989Z,24.81
2022-08-18T14:00:51.575Z,24.81
2022-08-18T14:03:20.501Z,24.81
2022-08-18T14:06:06.996Z,24.79
2022-08-18T14:08:33.928Z,24.80
2022-08-18T14:11:01.660Z,24.79
2022-08-18T14:13:28.611Z,24.77
2022-08-18T14:15:56.347Z,24.78
2022-08-18T14:18:28.902Z,24.82
2022-08-18T14:21:15.781Z,24.79
2022-08-18T14:24:00.761Z,24.76
2022-08-18T14:26:46.519Z,24.72
2022-08-18T14:29:17.465Z,24.72
2022-08-18T14:32:04.402Z,24.76
2022-08-18T14:34:31.382Z,24.69
2022-08-18T14:36:58.568Z,24.75
2022-08-18T14:39:25.497Z,24.76
2022-08-18T14:41:55.762Z,24.77
2022-08-18T14:44:24.260Z,24.73
2022-08-18T14:46:52.506Z,24.71
2022-08-18T14:49:28.205Z,24.70
2022-08-18T14:51:56.076Z,24.67
2022-08-18T14:54:23.734Z,24.69
2022-08-18T14:56:54.957Z,24.65
2022-08-18T14:59:23.173Z,24.58
2022-08-18T15:01:49.799Z,24.57
2022-08-18T15:04:18.801Z,24.62
2022-08-18T15:06:46.176Z,24.64
2022-08-18T15:09:24.144Z,24.67
2022-08-18T15:11:55.762Z,24.66
2022-08-18T15:14:32.636Z,24.69
2022-08-18T15:17:00.093Z,24.71
2022-08-18T15:19:58.265Z,24.69
2022-08-18T15:22:31.984Z,24.62
2022-08-18T15:25:17.318Z,24.63
2022-08-18T15:27:44.840Z,24.62
2022-08-18T15:30:19.609Z,24.56
2022-08-18T15:32:46.925Z,24.60
2022-08-18T15:35:16.457Z,24.57
2022-08-18T15:37:44.714Z,24.63
2022-08-18T15:40:31.226Z,24.63
2022-08-18T15:43:06.931Z,24.61
2022-08-18T15:45:43.258Z,24.61
2022-08-18T15:48:19.209Z,24.63
2022-08-18T15:50:50.959Z,24.60
2022-08-18T15:53:22.741Z,24.64
2022-08-18T15:55:50.120Z,24.61
2022-08-18T15:58:22.074Z,24.64
2022-08-18T16:00:50.627Z,24.67
2022-08-18T16:03:17.566Z,24.69
2022-08-18T16:05:52.808Z,24.61
2022-08-18T16:08:20.619Z,24.64
2022-08-18T16:10:47.142Z,24.58
2022-08-18T16:13:14.656Z,24.64
2022-08-18T16:15:43.498Z,24.60
2022-08-18T16:18:10.632Z,24.60
2022-08-18T16:20:37.375Z,24.56
2022-08-18T16:23:05.481Z,24.55
2022-08-18T16:25:32.007Z,24.60
2022-08-18T16:27:59.278Z,24.55
2022-08-18T16:30:27.217Z,24.56
2022-08-18T16:32:53.871Z,24.58
2022-08-18T16:35:20.879Z,24.55
2022-08-18T16:37:47.669Z,24.60
2022-08-18T16:40:14.773Z,24.52
2022-08-18T16:42:41.673Z,24.52
2022-08-18T16:45:08.840Z,24.49
2022-08-18T16:47:41.715Z,24.48
2022-08-18T16:50:13.808Z,24.51
2022-08-18T16:52:40.545Z,24.43
2022-08-18T16:55:08.023Z,24.35
2022-08-18T16:57:53.437Z,24.44
2022-08-18T17:00:41.333Z,24.42
2022-08-18T17:03:26.642Z,24.46
2022-08-18T17:06:03.781Z,24.41
2022-08-18T17:08:33.459Z,24.45
2022-08-18T17:11:01.679Z,24.41
2022-08-18T17:13:28.272Z,24.43
2022-08-18T17:15:54.778Z,24.41
2022-08-18T17:18:21.372Z,24.41
2022-08-18T17:20:47.905Z,24.40
2022-08-18T17:23:14.425Z,24.43
2022-08-18T17:25:41.077Z,24.36
2022-08-18T17:28:10.011Z,24.33
2022-08-18T17:30:38.342Z,24.37
2022-08-18T17:33:09.172Z,24.34
2022-08-18T17:35:44.773Z,24.34
2022-08-18T17:38:26.865Z,24.32
2022-08-18T17:40:54.986Z,24.25
2022-08-18T17:43:23.306Z,24.32
2022-08-18T17:45:58.189Z,24.34
2022-08-18T17:48:28.881Z,24.25
2022-08-18T17:51:24.638Z,24.31
2022-08-18T17:53:51.217Z,24.30
2022-08-18T17:56:22.628Z,24.20
2022-08-18T17:59:45.671Z,24.29
2022-08-18T18:02:28.712Z,24.25
2022-08-18T18:04:56.866Z,24.28
2022-08-18T18:07:24.113Z,24.26
2022-08-18T18:10:01.540Z,24.17
2022-08-18T18:12:29.685Z,24.19
2022-08-18T18:14:58.011Z,24.22
2022-08-18T18:17:33.267Z,24.18
2022-08-18T18:20:36.503Z,24.19
2022-08-18T18:23:20.390Z,24.13
2022-08-18T18:25:46.933Z,24.08
2022-08-18T18:28:27.443Z,24.10
2022-08-18T18:30:58.777Z,24.08
2022-08-18T18:33:29.631Z,24.02
2022-08-18T18:35:57.748Z,23.97
2022-08-18T18:38:31.109Z,23.89
2022-08-18T18:41:03.158Z,23.95
2022-08-18T18:43:38.239Z,23.97
2022-08-18T18:46:18.377Z,23.91
2022-08-18T18:48:52.434Z,23.95
2022-08-18T18:51:35.902Z,23.93
2022-08-18T18:54:39.502Z,23.93
2022-08-18T18:57:30.116Z,23.94
2022-08-18T19:00:18.178Z,23.88
2022-08-18T19:03:10.521Z,23.82
2022-08-18T19:05:51.879Z,23.84
2022-08-18T19:08:35.832Z,23.83
2022-08-18T19:11:10.072Z,23.83
2022-08-18T19:13:43.189Z,23.73
2022-08-18T19:16:24.165Z,23.74
2022-08-18T19:19:37.946Z,23.75
2022-08-18T19:22:04.855Z,23.75
2022-08-18T19:24:38.484Z,23.69
2022-08-18T19:27:05.084Z,23.64
2022-08-18T19:29:36.298Z,23.73
2022-08-18T19:32:07.271Z,23.68
2022-08-18T19:34:42.448Z,23.62
2022-08-18T19:37:49.451Z,23.62
2022-08-18T19:40:21.585Z,23.47
2022-08-18T19:43:04.225Z,23.62
2022-08-18T19:45:40.560Z,23.57
2022-08-18T19:48:17.992Z,23.52
2022-08-18T19:51:04.929Z,23.53
2022-08-18T19:53:35.698Z,23.48
2022-08-18T19:56:08.119Z,23.46
2022-08-18T19:59:04.670Z,23.49
2022-08-18T20:02:02.847Z,23.40
2022-08-18T20:04:43.457Z,23.45
2022-08-18T20:07:38.808Z,23.53
2022-08-18T20:10:36.626Z,23.56
2022-08-18T20:13:36.704Z,23.55
2022-08-18T20:16:09.581Z,23.54
2022-08-18T20:18:49.366Z,23.54
2022-08-18T20:21:15.717Z,23.51
2022-08-18T20:24:00.516Z,23.60
2022-08-18T20:26:38.726Z,23.52
2022-08-18T20:29:11.796Z,23.48
2022-08-18T20:31:45.707Z,23.48
2022-08-18T20:34:14.762Z,23.50
2022-08-18T20:36:41.938Z,23.46
2022-08-18T20:39:34.472Z,23.48
2022-08-18T20:42:05.457Z,23.45
2022-08-18T20:44:50.339Z,23.49
2022-08-18T20:47:25.720Z,23.49
2022-08-18T20:50:13.418Z,23.38
2022-08-18T20:53:01.294Z,23.38
2022-08-18T20:55:35.100Z,23.37
2022-08-18T20:58:08.242Z,23.32
2022-08-18T21:00:36.613Z,23.29
2022-08-18T21:03:08.394Z,23.45
2022-08-18T21:05:36.596Z,23.36
2022-08-18T21:08:31.751Z,23.34
2022-08-18T21:11:00.687Z,23.33
2022-08-18T21:13:28.171Z,23.31
2022-08-18T21:15:56.006Z,23.30
2022-08-18T21:18:24.044Z,23.34
2022-08-18T21:20:51.610Z,23.28
2022-08-18T21:23:33.773Z,23.30
2022-08-18T21:26:05.369Z,23.21
2022-08-18T21:28:34.836Z,23.27
2022-08-18T21:31:41.524Z,23.21
2022-08-18T21:33:56.510Z,23.21
2022-08-18T21:36:31.620Z,23.31
2022-08-18T21:39:05.951Z,23.57
2022-08-18T21:41:33.560Z,23.71
2022-08-18T21:44:06.295Z,23.78
2022-08-18T21:46:32.946Z,23.80
2022-08-18T21:49:01.725Z,23.84
2022-08-18T21:51:31.169Z,23.87
2022-08-18T21:53:58.572Z,23.88
2022-08-18T21:56:28.148Z,23.89
2022-08-18T21:59:11.860Z,23.90
2022-08-18T22:01:52.315Z,23.90
2022-08-18T22:04:26.579Z,23.92
2022-08-18T22:06:55.507Z,23.93
2022-08-18T22:09:43.130Z,23.95
2022-08-18T22:12:51.132Z,23.95
2022-08-18T22:15:20.748Z,23.97
2022-08-18T22:18:07.221Z,23.97
2022-08-18T22:20:49.953Z,23.97
2022-08-18T22:23:34.875Z,23.98
2022-08-18T22:26:16.290Z,23.97
2022-08-18T22:28:54.633Z,23.97
2022-08-18T22:31:23.159Z,23.98
2022-08-18T22:33:50.654Z,23.94
2022-08-18T22:36:19.555Z,24.00
2022-08-18T22:38:46.649Z,23.99
2022-08-18T22:41:13.752Z,23.99
2022-08-18T22:43:40.247Z,23.99
2022-08-18T22:46:06.755Z,24.00
2022-08-18T22:48:33.248Z,24.00
2022-08-18T22:50:59.757Z,23.98
2022-08-18T22:53:26.242Z,24.00
2022-08-18T22:55:53.281Z,23.99
2022-08-18T22:58:25.397Z,23.99
2022-08-18T23:01:01.054Z,24.00
2022-08-18T23:03:32.134Z,24.00
2022-08-18T23:06:03.280Z,23.99
2022-08-18T23:08:32.300Z,23.97
2022-08-18T23:11:16.551Z,23.97
2022-08-18T23:13:43.037Z,23.95
2022-08-18T23:16:30.479Z,23.96
2022-08-18T23:18:56.407Z,23.95
2022-08-18T23:21:34.828Z,23.95
2022-08-18T23:24:04.213Z,23.95
2022-08-18T23:26:30.711Z,23.95
2022-08-18T23:28:57.371Z,23.94
2022-08-18T23:31:23.849Z,23.95
2022-08-18T23:33:50.427Z,23.96
2022-08-18T23:36:17.814Z,23.98
2022-08-18T23:38:44.367Z,23.98
2022-08-18T23:41:11.580Z,23.99
2022-08-18T23:43:38.086Z,23.94
2022-08-18T23:46:04.717Z,24.00
2022-08-18T23:48:31.206Z,24.00
2022-08-18T23:51:03.082Z,23.99
2022-08-18T23:53:30.773Z,24.00
2022-08-18T23:55:57.471Z,23.99
2022-08-18T23:58:24.297Z,24.00
